KSACKRHV

Guest
Details From KSAC - Sacramento Executive
To KRHV - Reid Hillview Of Santa Clara Co
Flight Number -
Tags generated
Created
Modified
Stats Distance 73 nm / 134 km
Max Altitude 1,200 ft / 366 m
Waypoints 3
Social Downloads 0
Likes 0
Share VATSIM

Download

Looking for another format? Having issues loading an existing format? Contact us
Advertisement - Login to hide

Notes

Basic altitude profile: - Ascent Rate: 2500ft/min - Ascent Speed: 250kts - Cruise Altitude: 15000ft - Cruise Speed: 420kts - Descent Rate: 1500ft/min - Descent Speed: 250kts Options: - Use NATs: yes - Use PACOTS: yes - Use low airways: yes - Use high airways: yes

Route

KSAC MABRY KRHV

ID Type Via Altitude Latitude Longitude Leg Dist Tot Dist Heading (true) Name
O KSAC APT - 0 ft / 0 m 38.51264˚ -121.49319˚ - 0 nm - Sacramento Executive
MABRY FIX - 1,200 ft / 366 m 37.43117˚ -121.79545˚ 66 nm 66 nm 193° / 192° -
O KRHV APT - 0 ft / 0 m 37.33287˚ -121.81980˚ 6 nm 72 nm 191° / 191° Reid Hillview Of Santa Clara Co

Altitude Profile

Advertisement - Login to hide

KSAC

Details ICAO KSAC (SAC)
Name Sacramento Executive
Region United States
Timezone America/Los_Angeles (UTC-8.0)
Stats Elevation 24 ft / 7 m (AMSL)
Location 38.512642° -121.493193°
Runways 3
Magnetic Variation 13.516° E

METAR

KSAC 161453Z 33021G29KT 10SM CLR 11/M02 A2991 RMK AO2 PK WND 33034/1428 SLP128 T01061017 55003

Decode

TAF

KSAC 161505Z 1615/1712 33022G30KT P6SM SKC FM170100 34015G23KT P6SM SKC

Decode

Departure Runways

ID Width Length Bearing (true) Bearing (mag) Surface Threshold Offset Overrun Length
02 151 ft / 46 m 5,507 ft / 1,679 m 33.00° 19.48° Asphalt 0 ft / 0 m 0 ft / 0 m
12 98 ft / 30 m 3,834 ft / 1,169 m 133.23° 119.71° Asphalt 0 ft / 0 m 699 ft / 213 m
16 151 ft / 46 m 3,492 ft / 1,064 m 179.61° 166.09° Asphalt 0 ft / 0 m 0 ft / 0 m
20 151 ft / 46 m 5,507 ft / 1,679 m 213.01° 199.49° Asphalt 0 ft / 0 m 0 ft / 0 m
30 98 ft / 30 m 3,834 ft / 1,169 m 313.24° 299.72° Asphalt 0 ft / 0 m 0 ft / 0 m
34 151 ft / 46 m 3,492 ft / 1,064 m 359.61° 346.09° Asphalt 0 ft / 0 m 0 ft / 0 m

KRHV

Details ICAO KRHV
Name Reid Hillview Of Santa Clara Co
Region United States
Timezone America/Los_Angeles (UTC-8.0)
Stats Elevation 133 ft / 41 m (AMSL)
Location 37.332871° -121.819797°
Runways 2
Magnetic Variation 13.315° E

METAR

KRHV 161447Z 30005KT 10SM SKC 07/06 A3003

Decode

TAF

Not found

Destination Runways

ID Width Length Bearing (true) Bearing (mag) Surface Threshold Offset Overrun Length
13L 75 ft / 23 m 3,102 ft / 946 m 142.99° 129.67° Asphalt 499 ft / 152 m 0 ft / 0 m
13R 75 ft / 23 m 3,100 ft / 945 m 142.98° 129.66° Asphalt 499 ft / 152 m 0 ft / 0 m
31L 75 ft / 23 m 3,100 ft / 945 m 322.98° 309.66° Asphalt 409 ft / 125 m 0 ft / 0 m
31R 75 ft / 23 m 3,102 ft / 946 m 322.99° 309.67° Asphalt 410 ft / 125 m 0 ft / 0 m

Popular Alternatives